createdAt,value
2022-12-14T00:01:55.505Z,-7.09
2022-12-14T00:04:23.013Z,-7.12
2022-12-14T00:06:52.098Z,-7.16
2022-12-14T00:09:20.296Z,-7.18
2022-12-14T00:11:49.877Z,-7.23
2022-12-14T00:14:17.722Z,-7.25
2022-12-14T00:16:45.529Z,-7.27
2022-12-14T00:19:13.889Z,-7.29
2022-12-14T00:21:41.763Z,-7.30
2022-12-14T00:24:09.988Z,-7.32
2022-12-14T00:26:38.117Z,-7.35
2022-12-14T00:29:05.845Z,-7.35
2022-12-14T00:31:33.629Z,-7.36
2022-12-14T00:34:01.701Z,-7.34
2022-12-14T00:36:30.910Z,-7.36
2022-12-14T00:38:58.663Z,-7.36
2022-12-14T00:41:26.506Z,-7.35
2022-12-14T00:43:55.229Z,-7.35
2022-12-14T00:46:23.015Z,-7.35
2022-12-14T00:48:50.585Z,-7.36
2022-12-14T00:51:18.726Z,-7.37
2022-12-14T00:53:46.754Z,-7.37
2022-12-14T00:56:14.409Z,-7.37
2022-12-14T00:58:42.184Z,-7.39
2022-12-14T01:01:15.400Z,-7.42
2022-12-14T01:03:43.297Z,-7.46
2022-12-14T01:06:22.808Z,-7.48
2022-12-14T01:08:50.643Z,-7.51
2022-12-14T01:11:18.816Z,-7.54
2022-12-14T01:13:49.385Z,-7.56
2022-12-14T01:16:18.128Z,-7.58
2022-12-14T01:18:46.027Z,-7.59
2022-12-14T01:21:20.381Z,-7.59
2022-12-14T01:23:55.084Z,-7.60
2022-12-14T01:26:25.190Z,-7.61
2022-12-14T01:28:56.951Z,-7.65
2022-12-14T01:31:29.251Z,-7.68
2022-12-14T01:33:57.218Z,-7.69
2022-12-14T01:36:31.554Z,-7.71
2022-12-14T01:39:04.850Z,-7.73
2022-12-14T01:41:52.495Z,-7.76
2022-12-14T01:44:25.645Z,-7.79
2022-12-14T01:47:12.245Z,-7.84
2022-12-14T01:49:47.416Z,-7.87
2022-12-14T01:52:26.240Z,-7.88
2022-12-14T01:55:02.717Z,-7.89
2022-12-14T01:57:38.975Z,-7.94
2022-12-14T02:00:10.323Z,-7.97
2022-12-14T02:02:41.633Z,-8.00
2022-12-14T02:05:11.827Z,-8.03
2022-12-14T02:07:43.411Z,-8.05
2022-12-14T02:10:13.081Z,-8.04
2022-12-14T02:12:48.479Z,-8.04
2022-12-14T02:15:17.037Z,-8.01
2022-12-14T02:17:47.219Z,-8.02
2022-12-14T02:20:16.425Z,-8.00
2022-12-14T02:23:23.262Z,-8.03
2022-12-14T02:26:12.999Z,-8.04
2022-12-14T02:29:21.443Z,-8.01
2022-12-14T02:32:17.356Z,-7.97
2022-12-14T02:34:54.561Z,-7.92
2022-12-14T02:37:44.261Z,-7.88
2022-12-14T02:41:12.418Z,-7.88
2022-12-14T02:44:03.949Z,-7.89
2022-12-14T02:47:02.402Z,-7.89
2022-12-14T02:50:05.793Z,-7.90
2022-12-14T02:52:38.925Z,-7.89
2022-12-14T02:55:30.068Z,-7.88
2022-12-14T02:58:18.114Z,-7.87
2022-12-14T03:00:48.301Z,-7.86
2022-12-14T03:03:16.505Z,-7.85
2022-12-14T03:05:57.233Z,-7.87
2022-12-14T03:08:28.812Z,-7.90
2022-12-14T03:11:05.733Z,-7.93
2022-12-14T03:13:38.843Z,-7.96
2022-12-14T03:16:16.601Z,-7.96
2022-12-14T03:19:04.756Z,-7.96
2022-12-14T03:21:37.594Z,-7.95
2022-12-14T03:24:09.757Z,-7.97
2022-12-14T03:26:50.784Z,-7.97
2022-12-14T03:29:32.717Z,-8.01
2022-12-14T03:32:05.720Z,-8.04
2022-12-14T03:34:37.912Z,-8.05
2022-12-14T03:37:41.384Z,-8.07
2022-12-14T03:40:13.447Z,-8.06
2022-12-14T03:43:16.770Z,-8.05
2022-12-14T03:46:17.418Z,-8.03
2022-12-14T03:48:52.321Z,-8.01
2022-12-14T03:51:37.650Z,-8.00
2022-12-14T03:54:16.696Z,-8.01
2022-12-14T03:56:58.777Z,-8.09
2022-12-14T03:59:47.053Z,-7.94
2022-12-14T04:02:34.021Z,-7.92
2022-12-14T04:05:29.080Z,-7.90
2022-12-14T04:08:08.769Z,-7.88
2022-12-14T04:11:02.863Z,-7.85
2022-12-14T04:13:59.659Z,-7.86
2022-12-14T04:16:53.031Z,-7.85
2022-12-14T04:19:26.210Z,-7.81
2022-12-14T04:22:04.659Z,-7.79
2022-12-14T04:25:05.409Z,-7.78
2022-12-14T04:27:55.476Z,-7.76
2022-12-14T04:30:23.416Z,-7.76
2022-12-14T04:33:04.022Z,-7.72
2022-12-14T04:35:41.372Z,-7.69
2022-12-14T04:38:23.129Z,-7.67
2022-12-14T04:40:57.862Z,-7.66
2022-12-14T04:43:30.119Z,-7.65
2022-12-14T04:46:08.164Z,-7.65
2022-12-14T04:49:11.867Z,-7.69
2022-12-14T04:52:21.691Z,-7.70
2022-12-14T04:55:00.433Z,-7.70
2022-12-14T04:57:50.182Z,-7.67
2022-12-14T05:00:18.049Z,-7.66
2022-12-14T05:03:18.790Z,-7.65
2022-12-14T05:06:15.953Z,-7.61
2022-12-14T05:09:17.973Z,-7.58
2022-12-14T05:12:09.119Z,-7.54
2022-12-14T05:14:52.650Z,-7.51
2022-12-14T05:17:20.677Z,-7.47
2022-12-14T05:19:51.318Z,-7.47
2022-12-14T05:22:19.874Z,-7.47
2022-12-14T05:24:51.554Z,-7.57
2022-12-14T05:27:19.720Z,-7.42
2022-12-14T05:29:48.219Z,-7.39
2022-12-14T05:32:17.115Z,-7.36
2022-12-14T05:34:46.051Z,-7.33
2022-12-14T05:37:18.446Z,-7.34
2022-12-14T05:39:46.059Z,-7.34
2022-12-14T05:42:17.823Z,-7.33
2022-12-14T05:44:48.608Z,-7.33
2022-12-14T05:47:17.917Z,-7.35
2022-12-14T05:49:49.283Z,-7.39
2022-12-14T05:52:20.845Z,-7.42
2022-12-14T05:54:48.830Z,-7.45
2022-12-14T05:57:16.993Z,-7.46
2022-12-14T05:59:45.068Z,-7.49
2022-12-14T06:02:14.504Z,-7.48
2022-12-14T06:04:43.768Z,-7.49
2022-12-14T06:07:12.294Z,-7.50
2022-12-14T06:09:41.417Z,-7.51
2022-12-14T06:12:10.458Z,-7.49
2022-12-14T06:14:38.540Z,-7.30
2022-12-14T06:17:07.392Z,-6.94
2022-12-14T06:19:37.425Z,-6.56
2022-12-14T06:22:05.099Z,-6.16
2022-12-14T06:24:34.888Z,-5.80
2022-12-14T06:27:03.310Z,-5.42
2022-12-14T06:29:31.471Z,-5.03
2022-12-14T06:32:04.268Z,-4.71
2022-12-14T06:34:38.098Z,-4.40
2022-12-14T06:37:03.378Z,-4.16
2022-12-14T06:39:31.861Z,-3.85
2022-12-14T06:41:59.376Z,-3.55
2022-12-14T06:44:29.925Z,-3.26
2022-12-14T06:46:58.007Z,-3.03
2022-12-14T06:49:26.050Z,-2.87
2022-12-14T06:51:54.479Z,-2.92
2022-12-14T06:54:24.742Z,-3.07
2022-12-14T06:56:53.408Z,-3.19
2022-12-14T06:59:22.671Z,-3.25
2022-12-14T07:01:50.564Z,-3.22
2022-12-14T07:04:20.746Z,-3.22
2022-12-14T07:06:50.661Z,-3.25
2022-12-14T07:09:20.805Z,-3.33
2022-12-14T07:11:51.009Z,-3.41
2022-12-14T07:14:18.863Z,-3.45
2022-12-14T07:16:48.776Z,-3.46
2022-12-14T07:19:18.516Z,-3.55
2022-12-14T07:21:47.588Z,-3.63
2022-12-14T07:24:16.307Z,-3.63
2022-12-14T07:26:45.088Z,-3.56
2022-12-14T07:29:15.780Z,-3.51
2022-12-14T07:31:44.471Z,-3.52
2022-12-14T07:34:15.060Z,-3.51
2022-12-14T07:36:43.519Z,-3.51
2022-12-14T07:39:15.097Z,-3.50
2022-12-14T07:41:46.643Z,-3.44
2022-12-14T07:44:17.154Z,-3.43
2022-12-14T07:46:45.181Z,-3.19
2022-12-14T07:49:13.071Z,-3.29
2022-12-14T07:51:46.131Z,-3.26
2022-12-14T07:54:14.601Z,-3.15
2022-12-14T07:56:43.809Z,-2.96
2022-12-14T07:59:15.695Z,-2.80
2022-12-14T08:01:45.985Z,-2.67
2022-12-14T08:04:20.022Z,-2.61
2022-12-14T08:06:51.487Z,-2.57
2022-12-14T08:09:19.697Z,-2.53
2022-12-14T08:11:47.543Z,-2.53
2022-12-14T08:14:18.566Z,-2.54
2022-12-14T08:16:48.705Z,-2.52
2022-12-14T08:19:17.713Z,-2.60
2022-12-14T08:21:45.636Z,-2.68
2022-12-14T08:24:16.215Z,-2.69
2022-12-14T08:26:49.194Z,-2.75
2022-12-14T08:29:15.008Z,-2.81
2022-12-14T08:31:42.761Z,-2.80
2022-12-14T08:34:10.488Z,-2.75
2022-12-14T08:36:38.352Z,-2.77
2022-12-14T08:39:09.824Z,-2.75
2022-12-14T08:41:37.685Z,-2.70
2022-12-14T08:44:06.094Z,-2.59
2022-12-14T08:46:37.068Z,-2.51
2022-12-14T08:49:06.925Z,-2.32
2022-12-14T08:51:39.593Z,-2.03
2022-12-14T08:54:07.547Z,-1.78
2022-12-14T08:56:35.838Z,-1.53
2022-12-14T08:59:06.805Z,-1.25
2022-12-14T09:01:35.081Z,-1.01
2022-12-14T09:04:05.890Z,-0.80
2022-12-14T09:06:37.799Z,-0.71
2022-12-14T09:09:13.590Z,-0.58
2022-12-14T09:11:37.198Z,-0.49
2022-12-14T09:14:06.853Z,-0.34
2022-12-14T09:16:35.494Z,-0.18
2022-12-14T09:19:06.219Z,-0.13
2022-12-14T09:21:34.369Z,-0.09
2022-12-14T09:24:02.056Z,-0.04
2022-12-14T09:26:30.216Z,0.09
2022-12-14T09:28:58.294Z,0.26
2022-12-14T09:31:27.898Z,0.35
2022-12-14T09:33:56.280Z,0.26
2022-12-14T09:36:27.976Z,0.10
2022-12-14T09:38:57.096Z,-0.06
2022-12-14T09:41:50.966Z,-0.19
2022-12-14T09:44:29.804Z,-0.33
2022-12-14T09:47:29.794Z,-0.49
2022-12-14T09:50:09.068Z,-0.53
2022-12-14T09:52:53.129Z,-0.58
2022-12-14T09:55:28.734Z,-0.58
2022-12-14T09:58:01.970Z,-0.59
2022-12-14T10:00:35.394Z,-0.54
2022-12-14T10:03:38.988Z,-0.44
2022-12-14T10:06:44.165Z,-0.24
2022-12-14T10:09:50.445Z,0.05
2022-12-14T10:12:36.363Z,0.32
2022-12-14T10:15:17.202Z,0.58
2022-12-14T10:18:41.398Z,0.76
2022-12-14T10:21:14.810Z,0.80
2022-12-14T10:23:54.075Z,0.77
2022-12-14T10:26:33.172Z,0.78
2022-12-14T10:29:12.356Z,0.83
2022-12-14T10:32:18.962Z,0.85
2022-12-14T10:34:48.932Z,0.88
2022-12-14T10:37:37.466Z,0.89
2022-12-14T10:40:33.595Z,0.97
2022-12-14T10:43:03.626Z,1.12
2022-12-14T10:46:10.039Z,1.31
2022-12-14T10:48:44.940Z,1.35
2022-12-14T10:51:38.012Z,1.38
2022-12-14T10:54:33.338Z,1.48
2022-12-14T10:57:01.403Z,1.55
2022-12-14T10:59:43.696Z,1.52
2022-12-14T11:02:14.765Z,1.60
2022-12-14T11:05:00.879Z,1.79
2022-12-14T11:07:38.973Z,2.07
2022-12-14T11:10:29.397Z,2.20
2022-12-14T11:13:15.088Z,2.11
2022-12-14T11:15:46.071Z,1.95
2022-12-14T11:18:25.420Z,1.80
2022-12-14T11:21:04.683Z,1.72
2022-12-14T11:23:44.660Z,1.77
2022-12-14T11:26:25.121Z,1.83
2022-12-14T11:28:56.203Z,1.91
2022-12-14T11:31:32.461Z,1.98
2022-12-14T11:34:03.993Z,2.03
2022-12-14T11:36:39.197Z,2.10
2022-12-14T11:39:24.273Z,2.09
2022-12-14T11:42:04.132Z,2.06
2022-12-14T11:44:38.335Z,2.05
2022-12-14T11:47:19.832Z,2.03
2022-12-14T11:49:57.446Z,1.99
2022-12-14T11:52:40.279Z,1.94
2022-12-14T11:55:26.847Z,1.87
2022-12-14T11:57:55.277Z,1.83
2022-12-14T12:00:46.611Z,1.76
2022-12-14T12:03:19.545Z,1.78
2022-12-14T12:05:48.885Z,1.83
2022-12-14T12:08:22.489Z,1.80
2022-12-14T12:10:54.378Z,1.81
2022-12-14T12:13:28.074Z,1.81
2022-12-14T12:16:01.771Z,1.81
2022-12-14T12:18:47.421Z,1.69
2022-12-14T12:21:26.804Z,1.59
2022-12-14T12:24:03.622Z,1.56
2022-12-14T12:27:01.058Z,1.60
2022-12-14T12:29:40.009Z,1.61
2022-12-14T12:32:40.649Z,1.60
2022-12-14T12:35:53.449Z,1.53
2022-12-14T12:38:54.919Z,1.45
2022-12-14T12:41:49.799Z,1.49
2022-12-14T12:44:26.510Z,1.49
2022-12-14T12:49:33.128Z,1.48
2022-12-14T12:52:09.629Z,1.50
2022-12-14T12:54:55.352Z,1.49
2022-12-14T12:57:27.612Z,1.47
2022-12-14T12:59:56.953Z,1.44
2022-12-14T13:02:38.680Z,1.41
2022-12-14T13:05:45.151Z,1.39
2022-12-14T13:07:54.690Z,1.39
2022-12-14T13:10:32.422Z,1.34
2022-12-14T13:13:11.784Z,1.31
2022-12-14T13:15:54.355Z,1.32
2022-12-14T13:18:59.698Z,1.30
2022-12-14T13:21:35.916Z,1.27
2022-12-14T13:24:07.037Z,1.21
2022-12-14T13:27:29.606Z,1.15
2022-12-14T13:30:23.941Z,1.13
2022-12-14T13:33:20.074Z,1.10
2022-12-14T13:36:07.682Z,1.09
2022-12-14T13:38:44.125Z,1.05
2022-12-14T13:41:23.200Z,1.02
2022-12-14T13:44:37.186Z,1.00
2022-12-14T13:47:07.430Z,0.99
2022-12-14T13:49:35.710Z,0.95
2022-12-14T13:52:05.910Z,0.90
2022-12-14T13:54:41.607Z,0.85
2022-12-14T13:57:18.441Z,0.77
2022-12-14T13:59:54.290Z,0.65
2022-12-14T14:02:37.036Z,0.55
2022-12-14T14:05:25.815Z,0.49
2022-12-14T14:08:39.205Z,0.41
2022-12-14T14:11:39.960Z,0.34
2022-12-14T14:14:22.660Z,0.28
2022-12-14T14:16:57.479Z,0.22
2022-12-14T14:19:28.068Z,0.16
2022-12-14T14:22:28.280Z,0.13
2022-12-14T14:25:08.953Z,0.08
2022-12-14T14:27:41.898Z,0.04
2022-12-14T14:30:35.652Z,0.00
2022-12-14T14:33:43.212Z,-0.02
2022-12-14T14:35:38.111Z,-0.04
2022-12-14T14:38:29.217Z,-0.07
2022-12-14T14:41:19.059Z,-0.11
2022-12-14T14:43:49.546Z,-0.13
2022-12-14T14:46:23.154Z,-0.15
2022-12-14T14:48:58.296Z,-0.16
2022-12-14T14:51:30.280Z,-0.18
2022-12-14T14:55:11.118Z,-0.18
2022-12-14T14:56:53.508Z,-0.17
2022-12-14T14:59:40.593Z,-0.17
2022-12-14T15:02:31.169Z,-0.17
2022-12-14T15:05:24.842Z,-0.17
2022-12-14T15:07:32.510Z,-0.18
2022-12-14T15:10:08.571Z,-0.19
2022-12-14T15:12:53.512Z,-0.17
2022-12-14T15:15:37.472Z,-0.18
2022-12-14T15:18:24.129Z,-0.17
2022-12-14T15:21:11.631Z,-0.18
2022-12-14T15:23:52.605Z,-0.17
2022-12-14T15:26:28.526Z,-0.19
2022-12-14T15:29:00.029Z,-0.20
2022-12-14T15:31:37.816Z,-0.20
2022-12-14T15:34:06.349Z,-0.21
2022-12-14T15:36:39.618Z,-0.23
2022-12-14T15:39:27.893Z,-0.23
2022-12-14T15:42:12.880Z,-0.23
2022-12-14T15:44:51.074Z,-0.26
2022-12-14T15:47:27.120Z,-0.28
2022-12-14T15:50:15.781Z,-0.28
2022-12-14T15:52:45.792Z,-0.29
2022-12-14T15:55:36.922Z,-0.28
2022-12-14T15:58:17.777Z,-0.27
2022-12-14T16:00:51.066Z,-0.26
2022-12-14T16:03:25.096Z,-0.25
2022-12-14T16:05:54.877Z,-0.25
2022-12-14T16:08:24.526Z,-0.26
2022-12-14T16:10:56.220Z,-0.26
2022-12-14T16:13:32.708Z,-0.26
2022-12-14T16:16:11.138Z,-0.26
2022-12-14T16:18:51.240Z,-0.26
2022-12-14T16:21:35.382Z,-0.25
2022-12-14T16:24:25.686Z,-0.22
2022-12-14T16:27:01.974Z,-0.22
2022-12-14T16:29:34.110Z,-0.21
2022-12-14T16:32:14.875Z,-0.22
2022-12-14T16:34:58.550Z,-0.21
2022-12-14T16:37:32.613Z,-0.20
2022-12-14T16:39:56.143Z,-0.21
2022-12-14T16:42:26.864Z,-0.22
2022-12-14T16:44:55.029Z,-0.22
2022-12-14T16:47:37.184Z,-0.23
2022-12-14T16:50:55.020Z,-0.22
2022-12-14T16:53:25.275Z,-0.41
2022-12-14T16:56:15.306Z,-0.22
2022-12-14T16:58:54.744Z,-0.23
2022-12-14T17:01:26.080Z,-0.23
2022-12-14T17:04:02.103Z,-0.23
2022-12-14T17:06:39.427Z,-0.23
2022-12-14T17:09:20.166Z,-0.23
2022-12-14T17:12:01.829Z,-0.21
2022-12-14T17:14:32.211Z,-0.21
2022-12-14T17:17:07.142Z,-0.20
2022-12-14T17:19:39.302Z,-0.18
2022-12-14T17:22:21.748Z,-0.16
2022-12-14T17:24:51.768Z,-0.14
2022-12-14T17:27:24.496Z,-0.33
2022-12-14T17:29:58.442Z,-0.10
2022-12-14T17:32:30.453Z,-0.09
2022-12-14T17:35:08.059Z,-0.08
2022-12-14T17:37:38.978Z,-0.05
2022-12-14T17:40:11.653Z,-0.03
2022-12-14T17:42:40.944Z,-0.01
2022-12-14T17:45:16.995Z,0.03
2022-12-14T17:47:45.618Z,0.06
2022-12-14T17:50:15.136Z,0.07
2022-12-14T17:52:43.651Z,0.10
2022-12-14T17:55:24.542Z,0.13
2022-12-14T17:57:52.887Z,0.15
2022-12-14T18:00:43.808Z,0.18
2022-12-14T18:03:15.371Z,0.20
2022-12-14T18:05:49.178Z,0.21
2022-12-14T18:08:19.800Z,0.23
2022-12-14T18:11:00.659Z,0.25
2022-12-14T18:13:31.188Z,0.26
2022-12-14T18:16:02.348Z,0.28
2022-12-14T18:18:30.750Z,0.28
2022-12-14T18:21:02.604Z,0.29
2022-12-14T18:23:36.256Z,0.29
2022-12-14T18:26:04.832Z,0.30
2022-12-14T18:28:36.323Z,0.28
2022-12-14T18:31:08.437Z,0.28
2022-12-14T18:33:40.817Z,0.30
2022-12-14T18:36:12.299Z,0.31
2022-12-14T18:38:41.132Z,0.31
2022-12-14T18:41:11.317Z,0.32
2022-12-14T18:43:43.645Z,0.32
2022-12-14T18:46:09.401Z,0.32
2022-12-14T18:48:38.124Z,0.33
2022-12-14T18:51:06.977Z,0.32
2022-12-14T18:53:35.169Z,0.31
2022-12-14T18:56:07.265Z,0.26
2022-12-14T18:58:35.133Z,0.25
2022-12-14T19:01:02.763Z,0.24
2022-12-14T19:03:32.542Z,0.23
2022-12-14T19:08:42.620Z,0.21
2022-12-14T19:11:14.668Z,0.21
2022-12-14T19:13:46.239Z,0.23
2022-12-14T19:16:17.616Z,0.22
2022-12-14T19:18:45.102Z,0.24
2022-12-14T19:21:12.794Z,0.27
2022-12-14T19:23:40.317Z,0.27
2022-12-14T19:26:07.706Z,0.29
2022-12-14T19:28:35.497Z,0.10
2022-12-14T19:31:03.581Z,0.31
2022-12-14T19:33:31.749Z,0.33
2022-12-14T19:35:59.723Z,0.33
2022-12-14T19:38:28.022Z,0.34
2022-12-14T19:41:04.488Z,0.34
2022-12-14T19:43:32.854Z,0.35
2022-12-14T19:46:07.764Z,0.35
2022-12-14T19:48:35.766Z,0.38
2022-12-14T19:51:10.966Z,0.39
2022-12-14T19:53:40.197Z,0.39
2022-12-14T19:56:12.881Z,0.40
2022-12-14T19:58:40.755Z,0.40
2022-12-14T20:01:12.285Z,0.43
2022-12-14T20:03:41.097Z,0.42
2022-12-14T20:06:11.025Z,0.43
2022-12-14T20:08:38.812Z,0.43
2022-12-14T20:11:10.730Z,0.47
2022-12-14T20:13:40.493Z,0.48
2022-12-14T20:16:12.461Z,0.51
2022-12-14T20:18:40.423Z,0.52
2022-12-14T20:21:10.336Z,0.55
2022-12-14T20:23:39.217Z,0.56
2022-12-14T20:26:15.158Z,0.58
2022-12-14T20:28:45.342Z,0.59
2022-12-14T20:31:16.683Z,0.60
2022-12-14T20:33:45.225Z,0.64
2022-12-14T20:36:13.256Z,0.64
2022-12-14T20:38:41.017Z,0.65
2022-12-14T20:41:13.764Z,0.66
2022-12-14T20:43:43.642Z,0.67
2022-12-14T20:46:31.895Z,0.68
2022-12-14T20:49:03.588Z,0.71
2022-12-14T20:51:38.018Z,0.57
2022-12-14T20:54:10.962Z,0.72
2022-12-14T20:56:40.028Z,0.73
2022-12-14T20:59:10.588Z,0.74
2022-12-14T21:01:50.119Z,0.75
2022-12-14T21:04:16.979Z,0.78
2022-12-14T21:06:50.667Z,0.78
2022-12-14T21:09:19.252Z,0.81
2022-12-14T21:12:09.747Z,0.80
2022-12-14T21:14:46.132Z,0.81
2022-12-14T21:17:18.149Z,0.81
2022-12-14T21:19:47.102Z,0.80
2022-12-14T21:22:25.102Z,0.80
2022-12-14T21:25:03.033Z,0.78
2022-12-14T21:27:27.024Z,0.78
2022-12-14T21:29:55.550Z,0.77
2022-12-14T21:32:23.988Z,0.77
2022-12-14T21:34:52.173Z,0.77
2022-12-14T21:37:21.466Z,0.79
2022-12-14T21:39:55.079Z,0.80
2022-12-14T21:42:23.179Z,0.80
2022-12-14T21:44:53.563Z,0.83
2022-12-14T21:47:25.811Z,0.81
2022-12-14T21:50:05.143Z,0.84
2022-12-14T21:52:33.549Z,0.85
2022-12-14T21:55:03.257Z,0.86
2022-12-14T21:57:50.843Z,0.85
2022-12-14T22:00:19.802Z,0.85
2022-12-14T22:02:47.933Z,0.86
2022-12-14T22:05:17.010Z,0.86
2022-12-14T22:07:46.876Z,0.86
2022-12-14T22:10:17.657Z,0.87
2022-12-14T22:12:45.026Z,0.87
2022-12-14T22:15:12.902Z,0.88
2022-12-14T22:17:40.730Z,0.88
2022-12-14T22:20:10.487Z,0.89
2022-12-14T22:22:41.614Z,0.91
2022-12-14T22:25:12.374Z,0.94
2022-12-14T22:27:40.510Z,0.96
2022-12-14T22:30:11.676Z,0.98
2022-12-14T22:32:41.666Z,1.01
2022-12-14T22:35:10.318Z,1.03
2022-12-14T22:37:38.394Z,1.05
2022-12-14T22:40:08.579Z,1.06
2022-12-14T22:42:36.432Z,1.08
2022-12-14T22:45:05.829Z,1.10
2022-12-14T22:47:34.300Z,1.11
2022-12-14T22:50:02.607Z,1.13
2022-12-14T22:52:35.878Z,1.13
2022-12-14T22:55:05.112Z,1.13
2022-12-14T22:57:47.599Z,1.16
2022-12-14T23:00:16.483Z,1.18
2022-12-14T23:02:48.085Z,1.18
2022-12-14T23:05:17.576Z,1.19
2022-12-14T23:07:45.303Z,1.22
2022-12-14T23:10:31.409Z,1.22
2022-12-14T23:13:17.391Z,1.24
2022-12-14T23:16:04.759Z,1.25
2022-12-14T23:18:50.788Z,1.25
2022-12-14T23:21:37.219Z,1.24
2022-12-14T23:24:25.256Z,1.25
2022-12-14T23:27:14.263Z,1.25
2022-12-14T23:30:00.134Z,1.25
2022-12-14T23:32:46.312Z,1.25
2022-12-14T23:35:32.586Z,1.26
2022-12-14T23:38:26.719Z,1.24
2022-12-14T23:41:20.765Z,1.25
2022-12-14T23:44:08.341Z,1.25
2022-12-14T23:46:54.629Z,1.26
2022-12-14T23:49:41.422Z,1.26
2022-12-14T23:52:27.568Z,1.26
2022-12-14T23:55:13.517Z,1.25
2022-12-14T23:57:59.668Z,1.25
